createdAt,value
2023-01-07T00:01:07.677Z,7.13
2023-01-07T00:05:10.727Z,7.90
2023-01-07T00:09:16.731Z,5.85
2023-01-07T00:17:22.919Z,8.50
2023-01-07T00:21:27.187Z,6.78
2023-01-07T00:25:29.995Z,6.22
2023-01-07T00:29:33.020Z,5.97
2023-01-07T00:33:36.173Z,8.30
2023-01-07T00:37:51.228Z,8.13
2023-01-07T00:42:12.520Z,7.25
2023-01-07T00:46:15.779Z,6.35
2023-01-07T00:50:18.615Z,10.70
2023-01-07T00:54:21.351Z,6.43
2023-01-07T00:58:26.099Z,9.02
2023-01-07T01:02:29.805Z,6.05
2023-01-07T01:06:32.545Z,6.38
2023-01-07T01:10:35.659Z,6.47
2023-01-07T01:14:38.406Z,5.80
2023-01-07T01:18:42.198Z,5.35
2023-01-07T01:22:45.721Z,7.25
2023-01-07T01:26:48.458Z,5.30
2023-01-07T01:30:57.084Z,5.75
2023-01-07T01:35:03.032Z,5.80
2023-01-07T01:39:06.241Z,5.97
2023-01-07T01:43:30.969Z,6.50
2023-01-07T01:47:48.760Z,6.88
2023-01-07T01:51:59.355Z,6.97
2023-01-07T01:56:10.720Z,7.60
2023-01-07T02:00:16.717Z,6.90
2023-01-07T02:04:27.202Z,6.47
2023-01-07T02:08:30.239Z,5.00
2023-01-07T02:16:57.432Z,5.18
2023-01-07T02:21:27.415Z,5.53
2023-01-07T02:26:02.936Z,4.70
2023-01-07T02:30:43.194Z,6.45
2023-01-07T02:34:56.224Z,5.38
2023-01-07T02:39:07.973Z,5.18
2023-01-07T02:43:22.640Z,5.72
2023-01-07T02:47:54.592Z,5.15
2023-01-07T02:52:08.683Z,5.57
2023-01-07T02:56:31.668Z,7.18
2023-01-07T03:00:34.810Z,5.53
2023-01-07T03:04:50.990Z,5.95
2023-01-07T03:09:03.144Z,8.70
2023-01-07T03:13:17.890Z,7.60
2023-01-07T03:17:31.478Z,5.68
2023-01-07T03:21:36.164Z,4.38
2023-01-07T03:25:48.831Z,8.63
2023-01-07T03:29:54.268Z,5.68
2023-01-07T03:34:06.689Z,4.63
2023-01-07T03:38:10.206Z,4.90
2023-01-07T03:42:34.260Z,4.53
2023-01-07T03:46:38.644Z,8.18
2023-01-07T03:50:42.855Z,6.70
2023-01-07T03:54:45.992Z,5.53
2023-01-07T03:58:49.819Z,7.57
2023-01-07T04:02:52.703Z,9.82
2023-01-07T04:07:03.129Z,7.10
2023-01-07T04:11:06.090Z,7.18
2023-01-07T04:15:10.138Z,5.78
2023-01-07T04:19:12.891Z,5.53
2023-01-07T04:23:16.793Z,4.93
2023-01-07T04:27:22.206Z,5.13
2023-01-07T04:31:25.342Z,5.80
2023-01-07T04:35:29.794Z,6.40
2023-01-07T04:39:32.686Z,5.85
2023-01-07T04:43:36.302Z,6.03
2023-01-07T04:47:41.462Z,6.63
2023-01-07T04:51:44.570Z,13.65
2023-01-07T04:55:48.399Z,12.45
2023-01-07T04:59:52.035Z,12.52
2023-01-07T05:03:54.718Z,14.40
2023-01-07T05:07:57.542Z,13.40
2023-01-07T05:12:01.315Z,12.10
2023-01-07T05:16:07.146Z,11.57
2023-01-07T05:20:11.130Z,11.50
2023-01-07T05:24:15.368Z,9.98
2023-01-07T05:28:18.484Z,12.10
2023-01-07T05:32:21.408Z,12.02
2023-01-07T05:36:24.554Z,10.02
2023-01-07T05:40:27.420Z,9.60
2023-01-07T05:44:31.227Z,8.20
2023-01-07T05:48:34.274Z,5.72
2023-01-07T05:52:36.989Z,6.72
2023-01-07T05:56:39.811Z,6.45
2023-01-07T06:00:42.913Z,4.57
2023-01-07T06:04:45.847Z,6.47
2023-01-07T06:08:48.665Z,7.22
2023-01-07T06:12:51.420Z,6.18
2023-01-07T06:16:54.224Z,11.25
2023-01-07T06:20:57.229Z,15.93
2023-01-07T06:25:00.144Z,12.43
2023-01-07T06:29:03.521Z,14.30
2023-01-07T06:33:06.569Z,15.13
2023-01-07T06:37:09.381Z,16.63
2023-01-07T06:41:12.159Z,14.05
2023-01-07T06:45:14.982Z,15.32
2023-01-07T06:49:17.812Z,12.70
2023-01-07T06:53:20.561Z,15.98
2023-01-07T06:57:23.326Z,15.88
2023-01-07T07:01:26.473Z,12.65
2023-01-07T07:05:29.443Z,15.13
2023-01-07T07:09:32.158Z,13.50
2023-01-07T07:13:35.214Z,15.75
2023-01-07T07:17:37.994Z,12.90
2023-01-07T07:21:41.051Z,15.00
2023-01-07T07:25:43.933Z,14.43
2023-01-07T07:29:47.264Z,17.88
2023-01-07T07:33:49.999Z,14.82
2023-01-07T07:37:52.731Z,16.00
2023-01-07T07:41:56.057Z,13.70
2023-01-07T07:45:59.440Z,15.07
2023-01-07T07:50:02.213Z,14.10
2023-01-07T07:54:05.013Z,14.75
2023-01-07T07:58:07.974Z,33.50
2023-01-07T08:02:14.995Z,25.58
2023-01-07T08:06:17.923Z,16.27
2023-01-07T08:10:21.005Z,15.35
2023-01-07T08:14:24.019Z,14.25
2023-01-07T08:18:26.905Z,19.30
2023-01-07T08:22:29.766Z,17.83
2023-01-07T08:26:33.058Z,20.80
2023-01-07T08:30:36.812Z,40.90
2023-01-07T08:34:39.636Z,30.08
2023-01-07T08:38:42.506Z,28.00
2023-01-07T08:42:45.290Z,23.30
2023-01-07T08:46:48.058Z,16.67
2023-01-07T08:50:53.273Z,20.48
2023-01-07T08:54:55.991Z,20.40
2023-01-07T08:58:58.681Z,19.42
2023-01-07T09:03:03.106Z,19.52
2023-01-07T09:07:05.829Z,17.80
2023-01-07T09:11:08.832Z,18.17
2023-01-07T09:15:12.414Z,20.35
2023-01-07T09:19:15.189Z,16.65
2023-01-07T09:23:18.149Z,20.35
2023-01-07T09:27:22.689Z,21.33
2023-01-07T09:31:26.398Z,21.08
2023-01-07T09:35:29.209Z,20.42
2023-01-07T09:39:32.065Z,20.50
2023-01-07T09:44:00.777Z,17.38
2023-01-07T09:48:22.416Z,18.60
2023-01-07T09:52:36.900Z,17.95
2023-01-07T09:56:40.581Z,16.63
2023-01-07T10:01:17.766Z,16.48
2023-01-07T10:05:40.926Z,19.73
2023-01-07T10:10:05.025Z,18.70
2023-01-07T10:14:43.987Z,20.65
2023-01-07T10:19:07.214Z,22.02
2023-01-07T10:23:14.304Z,24.13
2023-01-07T10:27:32.382Z,18.98
2023-01-07T10:31:36.665Z,21.25
2023-01-07T10:35:41.138Z,18.25
2023-01-07T10:40:08.938Z,19.63
2023-01-07T10:44:23.073Z,17.83
2023-01-07T10:49:03.428Z,20.30
2023-01-07T10:53:44.672Z,24.40
2023-01-07T10:57:48.947Z,17.35
2023-01-07T11:01:56.393Z,17.88
2023-01-07T11:06:05.955Z,20.25
2023-01-07T11:10:17.935Z,19.85
2023-01-07T11:14:24.638Z,18.42
2023-01-07T11:18:59.336Z,20.73
2023-01-07T11:23:19.633Z,18.17
2023-01-07T11:27:26.662Z,16.95
2023-01-07T11:35:57.310Z,40.42
2023-01-07T11:40:02.503Z,18.13
2023-01-07T11:44:16.472Z,20.73
2023-01-07T11:48:32.955Z,40.22
2023-01-07T11:52:35.814Z,29.15
2023-01-07T11:56:38.643Z,22.98
2023-01-07T12:00:41.365Z,19.35
2023-01-07T12:04:44.826Z,17.85
2023-01-07T12:09:24.670Z,17.27
2023-01-07T12:13:28.104Z,20.80
2023-01-07T12:17:34.750Z,17.67
2023-01-07T12:21:47.428Z,17.55
2023-01-07T12:26:40.956Z,15.25
2023-01-07T12:30:54.665Z,15.63
2023-01-07T12:35:20.482Z,15.50
2023-01-07T12:39:26.654Z,13.50
2023-01-07T12:43:45.133Z,12.63
2023-01-07T12:47:54.799Z,15.40
2023-01-07T12:52:03.144Z,15.43
2023-01-07T12:56:23.738Z,13.68
2023-01-07T13:00:31.875Z,14.70
2023-01-07T13:05:12.070Z,12.05
2023-01-07T13:09:26.846Z,13.57
2023-01-07T13:13:48.184Z,15.25
2023-01-07T13:17:53.987Z,13.27
2023-01-07T13:21:57.242Z,11.47
2023-01-07T13:26:18.860Z,13.60
2023-01-07T13:30:50.979Z,10.35
2023-01-07T13:35:18.530Z,12.52
2023-01-07T13:39:27.271Z,9.57
2023-01-07T13:43:51.216Z,10.18
2023-01-07T13:47:58.591Z,8.05
2023-01-07T13:52:21.115Z,9.13
2023-01-07T13:56:23.901Z,9.43
2023-01-07T14:00:38.088Z,26.67
2023-01-07T14:05:03.352Z,15.27
2023-01-07T14:09:13.564Z,14.75
2023-01-07T14:13:42.697Z,10.07
2023-01-07T14:18:30.195Z,9.57
2023-01-07T14:22:41.924Z,9.63
2023-01-07T14:27:02.952Z,13.02
2023-01-07T14:31:06.130Z,8.45
2023-01-07T14:35:13.302Z,7.43
2023-01-07T14:39:35.099Z,11.85
2023-01-07T14:43:41.231Z,7.25
2023-01-07T14:47:44.023Z,6.27
2023-01-07T14:52:16.135Z,7.32
2023-01-07T14:56:46.917Z,7.97
2023-01-07T15:01:03.191Z,15.27
2023-01-07T15:05:19.097Z,13.13
2023-01-07T15:10:01.924Z,11.85
2023-01-07T15:14:35.406Z,11.70
2023-01-07T15:18:49.721Z,20.15
2023-01-07T15:23:04.926Z,16.83
2023-01-07T15:27:19.795Z,18.40
2023-01-07T15:31:38.711Z,20.65
2023-01-07T15:35:44.399Z,18.15
2023-01-07T15:39:52.831Z,26.63
2023-01-07T15:43:56.766Z,38.50
2023-01-07T15:48:10.651Z,19.05
2023-01-07T15:52:25.105Z,28.92
2023-01-07T15:56:28.780Z,17.60
2023-01-07T16:00:32.629Z,15.23
2023-01-07T16:04:38.637Z,13.85
2023-01-07T16:08:44.586Z,14.23
2023-01-07T16:12:55.856Z,13.45
2023-01-07T16:17:25.821Z,12.68
2023-01-07T16:21:37.665Z,11.30
2023-01-07T16:25:43.385Z,18.90
2023-01-07T16:29:52.568Z,18.80
2023-01-07T16:33:58.311Z,21.67
2023-01-07T16:38:03.735Z,20.45
2023-01-07T16:42:24.760Z,22.77
2023-01-07T16:46:36.249Z,16.45
2023-01-07T16:50:42.046Z,16.10
2023-01-07T16:54:46.397Z,22.13
2023-01-07T16:58:55.662Z,20.17
2023-01-07T17:03:00.954Z,20.25
2023-01-07T17:07:04.361Z,19.83
2023-01-07T17:11:40.042Z,17.25
2023-01-07T17:15:44.054Z,17.13
2023-01-07T17:19:53.205Z,16.63
2023-01-07T17:23:55.955Z,21.80
2023-01-07T17:28:06.564Z,15.13
2023-01-07T17:32:12.741Z,15.07
2023-01-07T17:36:37.889Z,16.25
2023-01-07T17:40:41.946Z,15.65
2023-01-07T17:44:45.775Z,16.90
2023-01-07T17:48:48.473Z,25.23
2023-01-07T17:52:54.785Z,22.65
2023-01-07T17:57:00.015Z,20.80
2023-01-07T18:01:07.188Z,23.50
2023-01-07T18:05:19.200Z,19.55
2023-01-07T18:09:21.928Z,23.20
2023-01-07T18:13:26.532Z,19.90
2023-01-07T18:17:29.794Z,17.60
2023-01-07T18:21:32.553Z,20.02
2023-01-07T18:25:35.312Z,19.52
2023-01-07T18:29:38.017Z,19.60
2023-01-07T18:33:40.942Z,22.92
2023-01-07T18:37:43.755Z,18.67
2023-01-07T18:41:48.809Z,22.63
2023-01-07T18:45:51.721Z,21.33
2023-01-07T18:49:54.703Z,22.35
2023-01-07T18:53:57.479Z,23.33
2023-01-07T18:58:00.529Z,25.33
2023-01-07T19:02:03.667Z,28.58
2023-01-07T19:06:08.434Z,28.50
2023-01-07T19:10:11.161Z,41.42
2023-01-07T19:14:15.290Z,40.65
2023-01-07T19:18:18.216Z,35.67
2023-01-07T19:22:21.078Z,36.60
2023-01-07T19:26:23.775Z,45.67
2023-01-07T19:30:26.875Z,47.75
2023-01-07T19:34:29.728Z,38.90
2023-01-07T19:38:33.073Z,39.53
2023-01-07T19:42:35.788Z,44.78
2023-01-07T19:46:40.155Z,29.70
2023-01-07T19:50:42.949Z,23.67
2023-01-07T19:54:45.790Z,23.08
2023-01-07T19:58:52.369Z,21.02
2023-01-07T20:02:55.201Z,19.23
2023-01-07T20:06:57.901Z,19.60
2023-01-07T20:11:01.240Z,23.90
2023-01-07T20:15:04.237Z,24.85
2023-01-07T20:19:07.635Z,23.67
2023-01-07T20:23:10.360Z,23.80
2023-01-07T20:27:13.138Z,22.33
2023-01-07T20:31:17.423Z,21.98
2023-01-07T20:35:20.584Z,22.05
2023-01-07T20:39:23.539Z,20.50
2023-01-07T20:43:26.283Z,19.55
2023-01-07T20:47:29.207Z,15.98
2023-01-07T20:51:32.192Z,17.67
2023-01-07T20:55:35.779Z,13.75
2023-01-07T20:59:38.591Z,13.68
2023-01-07T21:03:44.964Z,14.15
2023-01-07T21:07:50.161Z,13.65
2023-01-07T21:11:53.210Z,12.88
2023-01-07T21:16:03.122Z,15.32
2023-01-07T21:20:08.245Z,14.77
2023-01-07T21:24:12.227Z,13.68
2023-01-07T21:28:15.024Z,15.00
2023-01-07T21:32:17.800Z,15.73
2023-01-07T21:36:20.608Z,13.70
2023-01-07T21:40:23.911Z,18.23
2023-01-07T21:44:26.666Z,17.65
2023-01-07T21:48:33.397Z,15.88
2023-01-07T21:56:39.372Z,17.60
2023-01-07T22:00:42.463Z,13.90
2023-01-07T22:04:46.254Z,10.98
2023-01-07T22:08:50.051Z,12.82
2023-01-07T22:12:53.295Z,14.93
2023-01-07T22:16:56.287Z,15.38
2023-01-07T22:20:59.019Z,13.35
2023-01-07T22:25:06.048Z,9.35
2023-01-07T22:29:09.715Z,10.75
2023-01-07T22:33:12.384Z,11.57
2023-01-07T22:37:18.847Z,9.48
2023-01-07T22:41:21.680Z,10.43
2023-01-07T22:45:43.713Z,12.10
2023-01-07T22:49:47.834Z,12.82
2023-01-07T22:53:52.389Z,8.65
2023-01-07T22:57:55.304Z,8.65
2023-01-07T23:01:58.237Z,10.52
2023-01-07T23:06:01.600Z,12.55
2023-01-07T23:10:04.702Z,10.18
2023-01-07T23:14:07.690Z,11.15
2023-01-07T23:18:12.149Z,14.85
2023-01-07T23:22:14.980Z,18.17
2023-01-07T23:26:18.323Z,16.13
2023-01-07T23:30:21.141Z,13.38
2023-01-07T23:34:24.091Z,20.98
2023-01-07T23:38:26.826Z,18.85
2023-01-07T23:42:29.489Z,19.13
2023-01-07T23:46:32.273Z,16.23
2023-01-07T23:50:35.177Z,14.23
2023-01-07T23:54:37.963Z,15.50
2023-01-07T23:58:41.097Z,13.30
